N814PX KHOU-KATW
Flight info
| Callsign | N814PX |
|---|---|
| Flight time | 2h 17m |
| Altitude | 41000 |
| Route | INDIE8 TPAKK LIT J101 STL PIA OSH |
| Aircraft | E55P/M-SBDFGHJ2RWY/LB2 |
Departure
| Time | 2026-05-08 22:19 |
|---|---|
| Airport | William P. Hobby Airport (KHOU) |
Arrival
| Time | 2026-05-09 00:36 |
|---|---|
| Airport | Appleton International Airport (KATW) |
| Time | Latitude | Longitude | Altitude | Speed | Heading |
|---|---|---|---|---|---|
| 2026-05-08 21:54 | 29.64678 | -95.27300 | 44 ft | 0 kts | 284° |
| 2026-05-08 22:12 | 29.64679 | -95.27304 | 44 ft | 1 kts | 284° |
| 2026-05-08 22:13 | 29.64687 | -95.27337 | 44 ft | 6 kts | 290° |
| 2026-05-08 22:13 | 29.64719 | -95.27386 | 44 ft | 8 kts | 303° |
| 2026-05-08 22:13 | 29.64686 | -95.27438 | 44 ft | 9 kts | 223° |
| 2026-05-08 22:13 | 29.64656 | -95.27512 | 44 ft | 12 kts | 328° |
| 2026-05-08 22:14 | 29.64746 | -95.27515 | 44 ft | 15 kts | 360° |
| 2026-05-08 22:14 | 29.64875 | -95.27518 | 44 ft | 20 kts | 359° |
| 2026-05-08 22:14 | 29.65002 | -95.27521 | 44 ft | 13 kts | 359° |
| 2026-05-08 22:14 | 29.65057 | -95.27522 | 44 ft | 8 kts | 359° |
| 2026-05-08 22:15 | 29.65101 | -95.27567 | 44 ft | 12 kts | 269° |
| 2026-05-08 22:15 | 29.65099 | -95.27681 | 44 ft | 16 kts | 269° |
| 2026-05-08 22:15 | 29.65096 | -95.27829 | 44 ft | 19 kts | 268° |
| 2026-05-08 22:15 | 29.65158 | -95.27960 | 44 ft | 19 kts | 314° |
| 2026-05-08 22:16 | 29.65219 | -95.28079 | 44 ft | 15 kts | 249° |
| 2026-05-08 22:16 | 29.65232 | -95.28172 | 44 ft | 14 kts | 318° |
| 2026-05-08 22:16 | 29.65307 | -95.28268 | 44 ft | 17 kts | 282° |
| 2026-05-08 22:16 | 29.65249 | -95.28379 | 44 ft | 15 kts | 225° |
| 2026-05-08 22:17 | 29.65224 | -95.28497 | 44 ft | 16 kts | 267° |
| 2026-05-08 22:17 | 29.65206 | -95.28554 | 44 ft | 0 kts | 217° |
| 2026-05-08 22:17 | 29.65201 | -95.28558 | 44 ft | 2 kts | 211° |
| 2026-05-08 22:17 | 29.65154 | -95.28566 | 44 ft | 11 kts | 179° |
| 2026-05-08 22:18 | 29.65068 | -95.28519 | 44 ft | 18 kts | 136° |
| 2026-05-08 22:18 | 29.64864 | -95.28278 | 45 ft | 73 kts | 134° |
| 2026-05-08 22:18 | 29.64362 | -95.27679 | 47 ft | 129 kts | 134° |
| 2026-05-08 22:18 | 29.63690 | -95.26900 | 372 ft | 147 kts | 131° |
| 2026-05-08 22:19 | 29.63035 | -95.25962 | 911 ft | 157 kts | 112° |
| 2026-05-08 22:19 | 29.63138 | -95.24689 | 1370 ft | 176 kts | 56° |
| 2026-05-08 22:19 | 29.64177 | -95.23930 | 1975 ft | 190 kts | 11° |
| 2026-05-08 22:19 | 29.65492 | -95.24048 | 2666 ft | 197 kts | 352° |
| 2026-05-08 22:20 | 29.66876 | -95.24307 | 3255 ft | 209 kts | 352° |
| 2026-05-08 22:20 | 29.68336 | -95.24581 | 3911 ft | 218 kts | 351° |
| 2026-05-08 22:20 | 29.69856 | -95.24863 | 4569 ft | 228 kts | 351° |
| 2026-05-08 22:20 | 29.71419 | -95.25105 | 5265 ft | 235 kts | 352° |
| 2026-05-08 22:21 | 29.73074 | -95.25325 | 5855 ft | 247 kts | 352° |
| 2026-05-08 22:21 | 29.74767 | -95.25532 | 6477 ft | 258 kts | 352° |
| 2026-05-08 22:21 | 29.76564 | -95.25729 | 7255 ft | 262 kts | 352° |
| 2026-05-08 22:21 | 29.78381 | -95.25927 | 7906 ft | 271 kts | 352° |
| 2026-05-08 22:22 | 29.80236 | -95.26127 | 8750 ft | 270 kts | 352° |
| 2026-05-08 22:22 | 29.82119 | -95.26321 | 9522 ft | 274 kts | 352° |
| 2026-05-08 22:22 | 29.83986 | -95.26513 | 10319 ft | 275 kts | 352° |
| 2026-05-08 22:22 | 29.85911 | -95.26695 | 11023 ft | 280 kts | 352° |
| 2026-05-08 22:23 | 29.87847 | -95.26870 | 11750 ft | 283 kts | 352° |
| 2026-05-08 22:23 | 29.89805 | -95.27037 | 12467 ft | 286 kts | 352° |
| 2026-05-08 22:23 | 29.91779 | -95.26917 | 13143 ft | 292 kts | 1° |
| 2026-05-08 22:23 | 29.93805 | -95.26685 | 13825 ft | 296 kts | 2° |
| 2026-05-08 22:24 | 29.95851 | -95.26429 | 14497 ft | 299 kts | 1° |
| 2026-05-08 22:24 | 29.97926 | -95.26169 | 15157 ft | 302 kts | 1° |
| 2026-05-08 22:24 | 30.00011 | -95.25907 | 15800 ft | 306 kts | 0° |
| 2026-05-08 22:24 | 30.02116 | -95.25640 | 16462 ft | 308 kts | 359° |
| 2026-05-08 22:25 | 30.04262 | -95.25372 | 17086 ft | 311 kts | 359° |
| 2026-05-08 22:25 | 30.06406 | -95.25104 | 17693 ft | 314 kts | 358° |
| 2026-05-08 22:25 | 30.08578 | -95.24831 | 18314 ft | 316 kts | 358° |
| 2026-05-08 22:25 | 30.10738 | -95.24563 | 18880 ft | 320 kts | 358° |
| 2026-05-08 22:26 | 30.12967 | -95.24287 | 19447 ft | 323 kts | 358° |
| 2026-05-08 22:26 | 30.15182 | -95.24008 | 20003 ft | 325 kts | 358° |
| 2026-05-08 22:26 | 30.17457 | -95.23724 | 20530 ft | 329 kts | 358° |
| 2026-05-08 22:26 | 30.19711 | -95.23441 | 21065 ft | 332 kts | 358° |
| 2026-05-08 22:27 | 30.22001 | -95.23151 | 21584 ft | 334 kts | 358° |
| 2026-05-08 22:27 | 30.24315 | -95.22860 | 22068 ft | 338 kts | 358° |
| 2026-05-08 22:27 | 30.26676 | -95.22562 | 22581 ft | 340 kts | 358° |
| 2026-05-08 22:27 | 30.29003 | -95.22234 | 23051 ft | 348 kts | 4° |
| 2026-05-08 22:28 | 30.31340 | -95.21384 | 23496 ft | 356 kts | 11° |
| 2026-05-08 22:28 | 30.33704 | -95.20467 | 23938 ft | 360 kts | 11° |
| 2026-05-08 22:28 | 30.36065 | -95.19551 | 24377 ft | 363 kts | 11° |
| 2026-05-08 22:28 | 30.38464 | -95.18619 | 24777 ft | 367 kts | 11° |
| 2026-05-08 22:29 | 30.40868 | -95.17683 | 25173 ft | 371 kts | 11° |
| 2026-05-08 22:29 | 30.43320 | -95.16727 | 25565 ft | 374 kts | 11° |
| 2026-05-08 22:29 | 30.45780 | -95.15563 | 25928 ft | 386 kts | 21° |
| 2026-05-08 22:29 | 30.48133 | -95.14120 | 26294 ft | 390 kts | 21° |
| 2026-05-08 22:30 | 30.50529 | -95.12643 | 26650 ft | 394 kts | 21° |
| 2026-05-08 22:30 | 30.52946 | -95.11150 | 27029 ft | 396 kts | 21° |
| 2026-05-08 22:30 | 30.55375 | -95.09649 | 27363 ft | 401 kts | 21° |
| 2026-05-08 22:30 | 30.57834 | -95.08127 | 27721 ft | 404 kts | 21° |
| 2026-05-08 22:31 | 30.60309 | -95.06567 | 28053 ft | 408 kts | 22° |
| 2026-05-08 22:31 | 30.62808 | -95.04964 | 28398 ft | 411 kts | 22° |
| 2026-05-08 22:31 | 30.65316 | -95.03352 | 28699 ft | 415 kts | 22° |
| 2026-05-08 22:31 | 30.67837 | -95.01730 | 29093 ft | 416 kts | 22° |
| 2026-05-08 22:32 | 30.70344 | -95.00118 | 29465 ft | 417 kts | 22° |
| 2026-05-08 22:32 | 30.72891 | -94.98479 | 29848 ft | 418 kts | 22° |
| 2026-05-08 22:32 | 30.75413 | -94.96854 | 30226 ft | 419 kts | 22° |
| 2026-05-08 22:32 | 30.77949 | -94.95219 | 30622 ft | 419 kts | 21° |
| 2026-05-08 22:33 | 30.80501 | -94.93572 | 31010 ft | 419 kts | 21° |
| 2026-05-08 22:33 | 30.83016 | -94.91946 | 31423 ft | 417 kts | 21° |
| 2026-05-08 22:33 | 30.85564 | -94.90301 | 31777 ft | 418 kts | 21° |
| 2026-05-08 22:33 | 30.88088 | -94.88671 | 32122 ft | 418 kts | 21° |
| 2026-05-08 22:34 | 30.90632 | -94.87028 | 32479 ft | 418 kts | 21° |
| 2026-05-08 22:34 | 30.93147 | -94.85400 | 32828 ft | 417 kts | 21° |
| 2026-05-08 22:34 | 30.95658 | -94.83772 | 33187 ft | 417 kts | 20° |
| 2026-05-08 22:34 | 30.98192 | -94.82132 | 33513 ft | 417 kts | 20° |
| 2026-05-08 22:35 | 31.00728 | -94.80489 | 33813 ft | 417 kts | 20° |
| 2026-05-08 22:35 | 31.03239 | -94.78861 | 34120 ft | 417 kts | 20° |
| 2026-05-08 22:35 | 31.05760 | -94.77226 | 34424 ft | 417 kts | 20° |
| 2026-05-08 22:35 | 31.08298 | -94.75579 | 34736 ft | 417 kts | 20° |
| 2026-05-08 22:36 | 31.10822 | -94.73937 | 35065 ft | 416 kts | 20° |
| 2026-05-08 22:36 | 31.13327 | -94.72308 | 35306 ft | 417 kts | 19° |
| 2026-05-08 22:36 | 31.15847 | -94.70670 | 35576 ft | 417 kts | 19° |
| 2026-05-08 22:36 | 31.18381 | -94.69022 | 35838 ft | 417 kts | 19° |
| 2026-05-08 22:37 | 31.20891 | -94.67387 | 36090 ft | 417 kts | 19° |
| 2026-05-08 22:37 | 31.23431 | -94.65733 | 36350 ft | 417 kts | 19° |
| 2026-05-08 22:37 | 31.25935 | -94.64100 | 36568 ft | 417 kts | 19° |
| 2026-05-08 22:37 | 31.28465 | -94.62449 | 36784 ft | 418 kts | 19° |
| 2026-05-08 22:38 | 31.31012 | -94.60786 | 37000 ft | 419 kts | 19° |
| 2026-05-08 22:38 | 31.33557 | -94.59123 | 37226 ft | 419 kts | 19° |
| 2026-05-08 22:38 | 31.36068 | -94.57482 | 37430 ft | 419 kts | 19° |
| 2026-05-08 22:38 | 31.38619 | -94.55813 | 37636 ft | 420 kts | 19° |
| 2026-05-08 22:39 | 31.41144 | -94.54157 | 37862 ft | 419 kts | 18° |
| 2026-05-08 22:39 | 31.43696 | -94.52486 | 38058 ft | 420 kts | 18° |
| 2026-05-08 22:39 | 31.46237 | -94.50823 | 38245 ft | 420 kts | 18° |
| 2026-05-08 22:39 | 31.48780 | -94.49146 | 38441 ft | 422 kts | 20° |
| 2026-05-08 22:40 | 31.51301 | -94.47398 | 38590 ft | 424 kts | 20° |
| 2026-05-08 22:40 | 31.53821 | -94.45645 | 38781 ft | 424 kts | 20° |
| 2026-05-08 22:40 | 31.56325 | -94.43902 | 38944 ft | 424 kts | 20° |
| 2026-05-08 22:40 | 31.58876 | -94.42126 | 39127 ft | 424 kts | 20° |
| 2026-05-08 22:41 | 31.61377 | -94.40382 | 39288 ft | 425 kts | 20° |
| 2026-05-08 22:41 | 31.63932 | -94.38602 | 39455 ft | 425 kts | 20° |
| 2026-05-08 22:41 | 31.66465 | -94.36835 | 39630 ft | 425 kts | 20° |
| 2026-05-08 22:41 | 31.68988 | -94.35072 | 39771 ft | 426 kts | 20° |
| 2026-05-08 22:42 | 31.71531 | -94.33298 | 39881 ft | 427 kts | 20° |
| 2026-05-08 22:42 | 31.74058 | -94.31530 | 39986 ft | 427 kts | 20° |
| 2026-05-08 22:42 | 31.76622 | -94.29737 | 40116 ft | 427 kts | 20° |
| 2026-05-08 22:42 | 31.79177 | -94.27949 | 40238 ft | 427 kts | 20° |
| 2026-05-08 22:43 | 31.81707 | -94.26176 | 40354 ft | 427 kts | 20° |
| 2026-05-08 22:43 | 31.84261 | -94.24387 | 40470 ft | 427 kts | 20° |
| 2026-05-08 22:43 | 31.86789 | -94.22613 | 40566 ft | 428 kts | 20° |
| 2026-05-08 22:43 | 31.89325 | -94.20834 | 40670 ft | 428 kts | 20° |
| 2026-05-08 22:44 | 31.91871 | -94.19045 | 40773 ft | 428 kts | 20° |
| 2026-05-08 22:44 | 31.96973 | -94.15460 | 40920 ft | 430 kts | 20° |
| 2026-05-08 22:45 | 32.02086 | -94.11862 | 40930 ft | 431 kts | 20° |
| 2026-05-08 22:45 | 32.07257 | -94.08218 | 40932 ft | 433 kts | 20° |
| 2026-05-08 22:46 | 32.12386 | -94.04599 | 40925 ft | 435 kts | 20° |
| 2026-05-08 22:46 | 32.17568 | -94.00936 | 40929 ft | 436 kts | 20° |
| 2026-05-08 22:47 | 32.22765 | -93.97259 | 40935 ft | 437 kts | 20° |
| 2026-05-08 22:47 | 32.27977 | -93.93565 | 40941 ft | 438 kts | 20° |
| 2026-05-08 22:48 | 32.33201 | -93.89859 | 40946 ft | 440 kts | 20° |
| 2026-05-08 22:48 | 32.38415 | -93.86152 | 40942 ft | 442 kts | 20° |
| 2026-05-08 22:49 | 32.43706 | -93.82391 | 40934 ft | 445 kts | 20° |
| 2026-05-08 22:49 | 32.51659 | -93.76723 | 40923 ft | 449 kts | 20° |
| 2026-05-08 22:50 | 32.56990 | -93.72916 | 40925 ft | 452 kts | 20° |
| 2026-05-08 22:50 | 32.62390 | -93.69057 | 40927 ft | 455 kts | 21° |
| 2026-05-08 22:51 | 32.67773 | -93.65202 | 40928 ft | 458 kts | 21° |
| 2026-05-08 22:51 | 32.73255 | -93.61271 | 40930 ft | 461 kts | 21° |
| 2026-05-08 22:52 | 32.78724 | -93.57343 | 40931 ft | 465 kts | 21° |
| 2026-05-08 22:52 | 32.84270 | -93.53355 | 40932 ft | 468 kts | 21° |
| 2026-05-08 22:53 | 32.89851 | -93.49337 | 40934 ft | 472 kts | 21° |
| 2026-05-08 22:53 | 32.95436 | -93.45306 | 40935 ft | 476 kts | 21° |
| 2026-05-08 22:54 | 33.01135 | -93.41259 | 40935 ft | 478 kts | 19° |
| 2026-05-08 22:54 | 33.06884 | -93.37324 | 40933 ft | 482 kts | 19° |
| 2026-05-08 22:55 | 33.12690 | -93.33344 | 40903 ft | 485 kts | 20° |
| 2026-05-08 22:55 | 33.18517 | -93.29345 | 40898 ft | 486 kts | 20° |
| 2026-05-08 22:56 | 33.24366 | -93.25324 | 40900 ft | 488 kts | 20° |
| 2026-05-08 22:56 | 33.30234 | -93.21283 | 40901 ft | 489 kts | 20° |
| 2026-05-08 22:57 | 33.36111 | -93.17230 | 40903 ft | 490 kts | 20° |
| 2026-05-08 22:57 | 33.41993 | -93.13167 | 40904 ft | 492 kts | 20° |
| 2026-05-08 22:58 | 33.47905 | -93.09076 | 40909 ft | 493 kts | 20° |
| 2026-05-08 22:58 | 33.53850 | -93.04957 | 40915 ft | 495 kts | 20° |
| 2026-05-08 22:59 | 33.59802 | -93.00826 | 40918 ft | 496 kts | 20° |
| 2026-05-08 22:59 | 33.65751 | -92.96690 | 40920 ft | 498 kts | 20° |
| 2026-05-08 23:00 | 33.71737 | -92.92520 | 40921 ft | 500 kts | 20° |
| 2026-05-08 23:00 | 33.77726 | -92.88345 | 40923 ft | 502 kts | 20° |
| 2026-05-08 23:01 | 33.83775 | -92.84118 | 40924 ft | 504 kts | 20° |
| 2026-05-08 23:01 | 33.89796 | -92.79903 | 40926 ft | 506 kts | 20° |
| 2026-05-08 23:02 | 33.95856 | -92.75657 | 40927 ft | 508 kts | 20° |
| 2026-05-08 23:02 | 34.01973 | -92.71362 | 40930 ft | 509 kts | 20° |
| 2026-05-08 23:03 | 34.08069 | -92.67075 | 40930 ft | 509 kts | 20° |
| 2026-05-08 23:03 | 34.14117 | -92.62811 | 40919 ft | 504 kts | 20° |
| 2026-05-08 23:04 | 34.20153 | -92.58552 | 40916 ft | 500 kts | 20° |
| 2026-05-08 23:04 | 34.26090 | -92.54354 | 40915 ft | 496 kts | 20° |
| 2026-05-08 23:05 | 34.32010 | -92.50164 | 40917 ft | 492 kts | 20° |
| 2026-05-08 23:05 | 34.37851 | -92.46024 | 40919 ft | 491 kts | 20° |
| 2026-05-08 23:06 | 34.43751 | -92.41835 | 40921 ft | 494 kts | 20° |
| 2026-05-08 23:06 | 34.49677 | -92.37618 | 40922 ft | 496 kts | 20° |
| 2026-05-08 23:07 | 34.55599 | -92.33398 | 40904 ft | 495 kts | 21° |
| 2026-05-08 23:07 | 34.61486 | -92.29193 | 40901 ft | 491 kts | 21° |
| 2026-05-08 23:08 | 34.67319 | -92.25023 | 40903 ft | 488 kts | 21° |
| 2026-05-08 23:08 | 34.73149 | -92.20847 | 40905 ft | 488 kts | 21° |
| 2026-05-08 23:09 | 34.78985 | -92.16663 | 40899 ft | 490 kts | 21° |
| 2026-05-08 23:09 | 34.81968 | -92.14857 | 40896 ft | 471 kts | 7° |
| 2026-05-08 23:09 | 34.85083 | -92.13618 | 40893 ft | 470 kts | 6° |
| 2026-05-08 23:10 | 34.91282 | -92.11196 | 40889 ft | 472 kts | 6° |
| 2026-05-08 23:10 | 34.97513 | -92.08756 | 40892 ft | 472 kts | 6° |
| 2026-05-08 23:11 | 35.03747 | -92.06310 | 40898 ft | 469 kts | 6° |
| 2026-05-08 23:11 | 35.09912 | -92.03887 | 40901 ft | 465 kts | 6° |
| 2026-05-08 23:12 | 35.15976 | -92.01503 | 40898 ft | 462 kts | 6° |
| 2026-05-08 23:12 | 35.22078 | -91.99095 | 40903 ft | 460 kts | 5° |
| 2026-05-08 23:13 | 35.28115 | -91.96717 | 40908 ft | 461 kts | 6° |
| 2026-05-08 23:13 | 35.34206 | -91.94312 | 40914 ft | 463 kts | 6° |
| 2026-05-08 23:14 | 35.40329 | -91.91888 | 40918 ft | 466 kts | 6° |
| 2026-05-08 23:14 | 35.46494 | -91.89445 | 40919 ft | 466 kts | 6° |
| 2026-05-08 23:15 | 35.52657 | -91.86995 | 40919 ft | 465 kts | 6° |
| 2026-05-08 23:15 | 35.58744 | -91.84573 | 40920 ft | 462 kts | 6° |
| 2026-05-08 23:16 | 35.64800 | -91.82161 | 40922 ft | 460 kts | 6° |
| 2026-05-08 23:16 | 35.70852 | -91.79745 | 40922 ft | 458 kts | 6° |
| 2026-05-08 23:17 | 35.76896 | -91.77330 | 40923 ft | 457 kts | 6° |
| 2026-05-08 23:17 | 35.82899 | -91.74927 | 40925 ft | 458 kts | 6° |
| 2026-05-08 23:18 | 35.88965 | -91.72497 | 40920 ft | 460 kts | 6° |
| 2026-05-08 23:18 | 35.95042 | -91.70056 | 40910 ft | 463 kts | 6° |
| 2026-05-08 23:19 | 36.01160 | -91.67596 | 40901 ft | 464 kts | 6° |
| 2026-05-08 23:19 | 36.07280 | -91.65130 | 40900 ft | 463 kts | 6° |
| 2026-05-08 23:20 | 36.13208 | -91.62736 | 40895 ft | 460 kts | 6° |
| 2026-05-08 23:20 | 36.19238 | -91.60297 | 40895 ft | 456 kts | 6° |
| 2026-05-08 23:21 | 36.25272 | -91.57855 | 40896 ft | 455 kts | 6° |
| 2026-05-08 23:21 | 36.31263 | -91.55427 | 40898 ft | 457 kts | 6° |
| 2026-05-08 23:22 | 36.37314 | -91.52970 | 40899 ft | 460 kts | 6° |
| 2026-05-08 23:22 | 36.43380 | -91.50501 | 40900 ft | 463 kts | 6° |
| 2026-05-08 23:23 | 36.49478 | -91.48016 | 40900 ft | 463 kts | 6° |
| 2026-05-08 23:23 | 36.55579 | -91.45525 | 40897 ft | 460 kts | 6° |
| 2026-05-08 23:24 | 36.61596 | -91.43063 | 40894 ft | 456 kts | 6° |
| 2026-05-08 23:24 | 36.67598 | -91.40604 | 40893 ft | 453 kts | 6° |
| 2026-05-08 23:25 | 36.73546 | -91.38166 | 40894 ft | 453 kts | 6° |
| 2026-05-08 23:25 | 36.79528 | -91.35709 | 40896 ft | 456 kts | 6° |
| 2026-05-08 23:26 | 36.85536 | -91.33237 | 40878 ft | 459 kts | 7° |
| 2026-05-08 23:26 | 36.91595 | -91.30740 | 40877 ft | 461 kts | 7° |
| 2026-05-08 23:27 | 36.97660 | -91.28234 | 40878 ft | 461 kts | 7° |
| 2026-05-08 23:27 | 37.03722 | -91.25725 | 40878 ft | 459 kts | 7° |
| 2026-05-08 23:28 | 37.09740 | -91.23230 | 40878 ft | 455 kts | 7° |
| 2026-05-08 23:28 | 37.15675 | -91.20767 | 40873 ft | 452 kts | 7° |
| 2026-05-08 23:29 | 37.21622 | -91.18295 | 40871 ft | 452 kts | 7° |
| 2026-05-08 23:29 | 37.27580 | -91.15816 | 40870 ft | 453 kts | 7° |
| 2026-05-08 23:30 | 37.33577 | -91.13315 | 40871 ft | 457 kts | 7° |
| 2026-05-08 23:30 | 37.39562 | -91.10815 | 40872 ft | 460 kts | 7° |
| 2026-05-08 23:31 | 37.45618 | -91.08279 | 40874 ft | 460 kts | 7° |
| 2026-05-08 23:31 | 37.51689 | -91.05732 | 40875 ft | 458 kts | 7° |
| 2026-05-08 23:32 | 37.57666 | -91.03220 | 40876 ft | 455 kts | 7° |
| 2026-05-08 23:32 | 37.63633 | -91.00710 | 40878 ft | 453 kts | 7° |
| 2026-05-08 23:33 | 37.69572 | -90.98209 | 40881 ft | 452 kts | 7° |
| 2026-05-08 23:33 | 37.75532 | -90.95694 | 40883 ft | 454 kts | 7° |
| 2026-05-08 23:34 | 37.81547 | -90.93151 | 40882 ft | 457 kts | 7° |
| 2026-05-08 23:34 | 37.87556 | -90.90606 | 40879 ft | 460 kts | 7° |
| 2026-05-08 23:35 | 37.93575 | -90.88051 | 40876 ft | 460 kts | 7° |
| 2026-05-08 23:35 | 37.99641 | -90.85472 | 40876 ft | 458 kts | 7° |
| 2026-05-08 23:36 | 38.05623 | -90.82926 | 40876 ft | 454 kts | 8° |
| 2026-05-08 23:36 | 38.11541 | -90.80399 | 40873 ft | 449 kts | 7° |
| 2026-05-08 23:37 | 38.17415 | -90.77886 | 40873 ft | 445 kts | 7° |
| 2026-05-08 23:37 | 38.23256 | -90.75389 | 40875 ft | 444 kts | 7° |
| 2026-05-08 23:38 | 38.29127 | -90.72875 | 40874 ft | 448 kts | 7° |
| 2026-05-08 23:38 | 38.35025 | -90.70343 | 40872 ft | 453 kts | 7° |
| 2026-05-08 23:39 | 38.40973 | -90.67786 | 40869 ft | 457 kts | 8° |
| 2026-05-08 23:39 | 38.46973 | -90.65198 | 40868 ft | 458 kts | 8° |
| 2026-05-08 23:40 | 38.53001 | -90.62594 | 40868 ft | 455 kts | 8° |
| 2026-05-08 23:40 | 38.58929 | -90.60028 | 40869 ft | 451 kts | 7° |
| 2026-05-08 23:41 | 38.64806 | -90.57484 | 40869 ft | 447 kts | 7° |
| 2026-05-08 23:41 | 38.70638 | -90.54951 | 40871 ft | 444 kts | 7° |
| 2026-05-08 23:42 | 38.76485 | -90.52411 | 40872 ft | 444 kts | 7° |
| 2026-05-08 23:42 | 38.82331 | -90.49868 | 40873 ft | 446 kts | 8° |
| 2026-05-08 23:43 | 38.88213 | -90.47442 | 40875 ft | 445 kts | 5° |
| 2026-05-08 23:43 | 38.94163 | -90.45248 | 40877 ft | 448 kts | 5° |
| 2026-05-08 23:44 | 39.00121 | -90.43042 | 40880 ft | 448 kts | 5° |
| 2026-05-08 23:44 | 39.06061 | -90.40840 | 40882 ft | 445 kts | 5° |
| 2026-05-08 23:45 | 39.11946 | -90.38654 | 40880 ft | 440 kts | 5° |
| 2026-05-08 23:45 | 39.17810 | -90.36474 | 40881 ft | 437 kts | 5° |
| 2026-05-08 23:46 | 39.23599 | -90.34318 | 40867 ft | 436 kts | 5° |
| 2026-05-08 23:46 | 39.29369 | -90.32166 | 40866 ft | 436 kts | 6° |
| 2026-05-08 23:47 | 39.35173 | -90.29996 | 40866 ft | 439 kts | 6° |
| 2026-05-08 23:47 | 39.41039 | -90.27799 | 40867 ft | 442 kts | 6° |
| 2026-05-08 23:48 | 39.46964 | -90.25576 | 40867 ft | 445 kts | 6° |
| 2026-05-08 23:48 | 39.52872 | -90.23357 | 40868 ft | 445 kts | 6° |
| 2026-05-08 23:49 | 39.58795 | -90.21124 | 40869 ft | 443 kts | 6° |
| 2026-05-08 23:49 | 39.64664 | -90.18908 | 40871 ft | 439 kts | 6° |
| 2026-05-08 23:50 | 39.70479 | -90.16711 | 40871 ft | 436 kts | 6° |
| 2026-05-08 23:50 | 39.76272 | -90.14519 | 40872 ft | 434 kts | 6° |
| 2026-05-08 23:51 | 39.82022 | -90.12340 | 40874 ft | 435 kts | 6° |
| 2026-05-08 23:51 | 39.87840 | -90.10132 | 40876 ft | 438 kts | 6° |
| 2026-05-08 23:52 | 39.93697 | -90.07903 | 40878 ft | 441 kts | 6° |
| 2026-05-08 23:52 | 39.99574 | -90.05663 | 40879 ft | 443 kts | 6° |
| 2026-05-08 23:53 | 40.05441 | -90.03421 | 40879 ft | 443 kts | 6° |
| 2026-05-08 23:53 | 40.11323 | -90.01170 | 40879 ft | 440 kts | 6° |
| 2026-05-08 23:54 | 40.17137 | -89.98941 | 40879 ft | 437 kts | 6° |
| 2026-05-08 23:55 | 40.25841 | -89.95599 | 40862 ft | 435 kts | 6° |
| 2026-05-08 23:55 | 40.31637 | -89.93369 | 40850 ft | 437 kts | 6° |
| 2026-05-08 23:56 | 40.37454 | -89.91126 | 40846 ft | 439 kts | 6° |
| 2026-05-08 23:56 | 40.43321 | -89.88861 | 40846 ft | 441 kts | 6° |
| 2026-05-08 23:57 | 40.49176 | -89.86593 | 40846 ft | 441 kts | 6° |
| 2026-05-08 23:57 | 40.55053 | -89.84313 | 40846 ft | 440 kts | 6° |
| 2026-05-08 23:58 | 40.60855 | -89.82058 | 40846 ft | 437 kts | 6° |
| 2026-05-08 23:58 | 40.66656 | -89.79802 | 40845 ft | 434 kts | 6° |
| 2026-05-08 23:59 | 40.72429 | -89.77711 | 40840 ft | 431 kts | 5° |
| 2026-05-08 23:59 | 40.78223 | -89.75656 | 40834 ft | 433 kts | 5° |
| 2026-05-09 00:00 | 40.83993 | -89.73606 | 40831 ft | 435 kts | 5° |
| 2026-05-09 00:00 | 40.89849 | -89.71521 | 40831 ft | 437 kts | 5° |
| 2026-05-09 00:01 | 40.95667 | -89.69443 | 40831 ft | 436 kts | 5° |
| 2026-05-09 00:01 | 41.01511 | -89.67354 | 40831 ft | 434 kts | 5° |
| 2026-05-09 00:02 | 41.07296 | -89.65283 | 40831 ft | 431 kts | 5° |
| 2026-05-09 00:02 | 41.13052 | -89.63219 | 40830 ft | 429 kts | 5° |
| 2026-05-09 00:03 | 41.18769 | -89.61166 | 40831 ft | 429 kts | 6° |
| 2026-05-09 00:03 | 41.24518 | -89.59096 | 40831 ft | 429 kts | 6° |
| 2026-05-09 00:04 | 41.30267 | -89.57024 | 40830 ft | 430 kts | 6° |
| 2026-05-09 00:04 | 41.36025 | -89.54942 | 40824 ft | 431 kts | 6° |
| 2026-05-09 00:05 | 41.41815 | -89.52848 | 40818 ft | 431 kts | 6° |
| 2026-05-09 00:05 | 41.47542 | -89.50771 | 40814 ft | 430 kts | 6° |
| 2026-05-09 00:06 | 41.53296 | -89.48679 | 40814 ft | 429 kts | 6° |
| 2026-05-09 00:06 | 41.59032 | -89.46590 | 40814 ft | 427 kts | 6° |
| 2026-05-09 00:07 | 41.64734 | -89.44513 | 40814 ft | 426 kts | 6° |
| 2026-05-09 00:07 | 41.70418 | -89.42436 | 40815 ft | 427 kts | 6° |
| 2026-05-09 00:08 | 41.76157 | -89.40337 | 40537 ft | 433 kts | 6° |
| 2026-05-09 00:08 | 41.79071 | -89.39269 | 40181 ft | 437 kts | 6° |
| 2026-05-09 00:08 | 41.81998 | -89.38193 | 39787 ft | 438 kts | 6° |
| 2026-05-09 00:08 | 41.84926 | -89.37116 | 39379 ft | 439 kts | 6° |
| 2026-05-09 00:09 | 41.87859 | -89.36037 | 38930 ft | 440 kts | 6° |
| 2026-05-09 00:09 | 41.90763 | -89.34967 | 38452 ft | 439 kts | 6° |
| 2026-05-09 00:09 | 41.93719 | -89.33879 | 37941 ft | 439 kts | 6° |
| 2026-05-09 00:09 | 41.96625 | -89.32809 | 37439 ft | 438 kts | 6° |
| 2026-05-09 00:10 | 41.99566 | -89.31723 | 36931 ft | 438 kts | 6° |
| 2026-05-09 00:10 | 42.02490 | -89.30650 | 36426 ft | 437 kts | 6° |
| 2026-05-09 00:10 | 42.05411 | -89.29568 | 35920 ft | 436 kts | 6° |
| 2026-05-09 00:10 | 42.08284 | -89.28503 | 35420 ft | 435 kts | 6° |
| 2026-05-09 00:11 | 42.11224 | -89.27413 | 34899 ft | 436 kts | 6° |
| 2026-05-09 00:11 | 42.14136 | -89.26334 | 34390 ft | 439 kts | 6° |
| 2026-05-09 00:11 | 42.17071 | -89.25248 | 33890 ft | 449 kts | 6° |
| 2026-05-09 00:11 | 42.20101 | -89.24129 | 33386 ft | 457 kts | 6° |
| 2026-05-09 00:12 | 42.23178 | -89.22987 | 32884 ft | 465 kts | 6° |
| 2026-05-09 00:12 | 42.26294 | -89.21826 | 32380 ft | 469 kts | 6° |
| 2026-05-09 00:12 | 42.29450 | -89.20647 | 31856 ft | 469 kts | 6° |
| 2026-05-09 00:12 | 42.32568 | -89.19482 | 31326 ft | 468 kts | 6° |
| 2026-05-09 00:13 | 42.35664 | -89.18327 | 30799 ft | 466 kts | 6° |
| 2026-05-09 00:13 | 42.38780 | -89.17162 | 30268 ft | 464 kts | 6° |
| 2026-05-09 00:13 | 42.41864 | -89.16008 | 29739 ft | 462 kts | 6° |
| 2026-05-09 00:13 | 42.44935 | -89.14861 | 29211 ft | 459 kts | 6° |
| 2026-05-09 00:14 | 42.47992 | -89.13715 | 28684 ft | 456 kts | 7° |
| 2026-05-09 00:14 | 42.51032 | -89.12576 | 28155 ft | 453 kts | 7° |
| 2026-05-09 00:14 | 42.54033 | -89.11449 | 27629 ft | 449 kts | 7° |
| 2026-05-09 00:14 | 42.57034 | -89.10320 | 27100 ft | 445 kts | 7° |
| 2026-05-09 00:15 | 42.59987 | -89.09210 | 26587 ft | 443 kts | 7° |
| 2026-05-09 00:15 | 42.62923 | -89.08104 | 26090 ft | 442 kts | 8° |
| 2026-05-09 00:15 | 42.65877 | -89.06990 | 25588 ft | 440 kts | 8° |
| 2026-05-09 00:15 | 42.68830 | -89.05874 | 25084 ft | 438 kts | 8° |
| 2026-05-09 00:16 | 42.71713 | -89.04785 | 24590 ft | 436 kts | 8° |
| 2026-05-09 00:16 | 42.74640 | -89.03677 | 24098 ft | 432 kts | 8° |
| 2026-05-09 00:16 | 42.77502 | -89.02592 | 23624 ft | 428 kts | 8° |
| 2026-05-09 00:16 | 42.80331 | -89.01519 | 23151 ft | 425 kts | 8° |
| 2026-05-09 00:17 | 42.83172 | -89.00442 | 22672 ft | 422 kts | 8° |
| 2026-05-09 00:17 | 42.85975 | -88.99377 | 22196 ft | 418 kts | 8° |
| 2026-05-09 00:17 | 42.88742 | -88.98325 | 21723 ft | 415 kts | 9° |
| 2026-05-09 00:17 | 42.91497 | -88.97276 | 21247 ft | 411 kts | 9° |
| 2026-05-09 00:18 | 42.94247 | -88.96228 | 20767 ft | 408 kts | 8° |
| 2026-05-09 00:18 | 42.96944 | -88.95201 | 20293 ft | 404 kts | 9° |
| 2026-05-09 00:18 | 42.99638 | -88.94173 | 19815 ft | 401 kts | 8° |
| 2026-05-09 00:18 | 43.02290 | -88.93162 | 19340 ft | 397 kts | 9° |
| 2026-05-09 00:19 | 43.04946 | -88.92146 | 18860 ft | 393 kts | 9° |
| 2026-05-09 00:19 | 43.07530 | -88.91158 | 18388 ft | 390 kts | 8° |
| 2026-05-09 00:19 | 43.10080 | -88.90183 | 17917 ft | 385 kts | 9° |
| 2026-05-09 00:19 | 43.12666 | -88.89193 | 17440 ft | 381 kts | 9° |
| 2026-05-09 00:20 | 43.15228 | -88.88212 | 17050 ft | 379 kts | 9° |
| 2026-05-09 00:20 | 43.17744 | -88.87244 | 16679 ft | 375 kts | 9° |
| 2026-05-09 00:20 | 43.20230 | -88.86289 | 16308 ft | 372 kts | 9° |
| 2026-05-09 00:20 | 43.22713 | -88.85335 | 15935 ft | 370 kts | 9° |
| 2026-05-09 00:21 | 43.25184 | -88.84386 | 15515 ft | 372 kts | 9° |
| 2026-05-09 00:21 | 43.27671 | -88.83431 | 15069 ft | 371 kts | 9° |
| 2026-05-09 00:21 | 43.30140 | -88.82479 | 14625 ft | 367 kts | 9° |
| 2026-05-09 00:21 | 43.32556 | -88.81546 | 14255 ft | 362 kts | 9° |
| 2026-05-09 00:22 | 43.34982 | -88.80608 | 14048 ft | 360 kts | 9° |
| 2026-05-09 00:22 | 43.37380 | -88.79682 | 14023 ft | 359 kts | 9° |
| 2026-05-09 00:22 | 43.39773 | -88.78756 | 14018 ft | 358 kts | 9° |
| 2026-05-09 00:22 | 43.42146 | -88.77834 | 14019 ft | 356 kts | 9° |
| 2026-05-09 00:23 | 43.44543 | -88.76907 | 14019 ft | 355 kts | 9° |
| 2026-05-09 00:23 | 43.46913 | -88.75988 | 14019 ft | 354 kts | 9° |
| 2026-05-09 00:23 | 43.49264 | -88.75076 | 14020 ft | 354 kts | 9° |
| 2026-05-09 00:23 | 43.51617 | -88.74163 | 13947 ft | 353 kts | 9° |
| 2026-05-09 00:24 | 43.53947 | -88.73256 | 13695 ft | 344 kts | 9° |
| 2026-05-09 00:24 | 43.56229 | -88.72369 | 13443 ft | 335 kts | 9° |
| 2026-05-09 00:24 | 43.58444 | -88.71508 | 13101 ft | 336 kts | 9° |
| 2026-05-09 00:24 | 43.60685 | -88.70637 | 12730 ft | 337 kts | 9° |
| 2026-05-09 00:25 | 43.62942 | -88.69759 | 12356 ft | 335 kts | 9° |
| 2026-05-09 00:25 | 43.65173 | -88.68890 | 11982 ft | 331 kts | 9° |
| 2026-05-09 00:25 | 43.67360 | -88.68034 | 11605 ft | 322 kts | 9° |
| 2026-05-09 00:25 | 43.69464 | -88.67212 | 11233 ft | 315 kts | 10° |
| 2026-05-09 00:26 | 43.71556 | -88.66396 | 10856 ft | 310 kts | 10° |
| 2026-05-09 00:26 | 43.73609 | -88.65595 | 10480 ft | 305 kts | 10° |
| 2026-05-09 00:26 | 43.75607 | -88.64812 | 10107 ft | 296 kts | 11° |
| 2026-05-09 00:26 | 43.77599 | -88.64034 | 9825 ft | 297 kts | 11° |
| 2026-05-09 00:27 | 43.79597 | -88.63251 | 9577 ft | 299 kts | 11° |
| 2026-05-09 00:27 | 43.81593 | -88.62466 | 9331 ft | 298 kts | 11° |
| 2026-05-09 00:27 | 43.83575 | -88.61689 | 9085 ft | 298 kts | 12° |
| 2026-05-09 00:27 | 43.85568 | -88.60905 | 8838 ft | 298 kts | 12° |
| 2026-05-09 00:28 | 43.87545 | -88.60126 | 8594 ft | 298 kts | 12° |
| 2026-05-09 00:28 | 43.89538 | -88.59341 | 8349 ft | 298 kts | 12° |
| 2026-05-09 00:28 | 43.91530 | -88.58556 | 8102 ft | 296 kts | 12° |
| 2026-05-09 00:28 | 43.93495 | -88.57782 | 7857 ft | 295 kts | 12° |
| 2026-05-09 00:29 | 43.95454 | -88.57009 | 7612 ft | 294 kts | 12° |
| 2026-05-09 00:29 | 43.97431 | -88.56233 | 7364 ft | 292 kts | 12° |
| 2026-05-09 00:29 | 43.99168 | -88.54858 | 7106 ft | 295 kts | 44° |
| 2026-05-09 00:29 | 44.00323 | -88.52535 | 6865 ft | 286 kts | 57° |
| 2026-05-09 00:30 | 44.01338 | -88.50219 | 6617 ft | 276 kts | 58° |
| 2026-05-09 00:30 | 44.02305 | -88.47987 | 6370 ft | 268 kts | 58° |
| 2026-05-09 00:30 | 44.03473 | -88.46062 | 6112 ft | 257 kts | 29° |
| 2026-05-09 00:30 | 44.05128 | -88.45335 | 5878 ft | 245 kts | 6° |
| 2026-05-09 00:31 | 44.06757 | -88.44917 | 5626 ft | 235 kts | 6° |
| 2026-05-09 00:31 | 44.08288 | -88.44523 | 5358 ft | 210 kts | 6° |
| 2026-05-09 00:31 | 44.09678 | -88.44154 | 5115 ft | 204 kts | 6° |
| 2026-05-09 00:31 | 44.11066 | -88.43793 | 4852 ft | 196 kts | 6° |
| 2026-05-09 00:32 | 44.12347 | -88.43451 | 4594 ft | 184 kts | 6° |
| 2026-05-09 00:32 | 44.13603 | -88.43121 | 4386 ft | 184 kts | 6° |
| 2026-05-09 00:32 | 44.14853 | -88.42796 | 4140 ft | 185 kts | 5° |
| 2026-05-09 00:32 | 44.16128 | -88.42468 | 3920 ft | 182 kts | 6° |
| 2026-05-09 00:33 | 44.17334 | -88.42162 | 3694 ft | 174 kts | 5° |
| 2026-05-09 00:33 | 44.18508 | -88.41861 | 3438 ft | 167 kts | 5° |
| 2026-05-09 00:33 | 44.19582 | -88.41586 | 3173 ft | 152 kts | 3° |
| 2026-05-09 00:33 | 44.20530 | -88.41863 | 2895 ft | 130 kts | 317° |
| 2026-05-09 00:34 | 44.21158 | -88.42649 | 2651 ft | 121 kts | 314° |
| 2026-05-09 00:34 | 44.21806 | -88.43408 | 2438 ft | 122 kts | 313° |
| 2026-05-09 00:34 | 44.22459 | -88.44170 | 2215 ft | 123 kts | 316° |
| 2026-05-09 00:34 | 44.23045 | -88.45016 | 1995 ft | 120 kts | 307° |
| 2026-05-09 00:35 | 44.23538 | -88.45958 | 1791 ft | 119 kts | 303° |
| 2026-05-09 00:35 | 44.23970 | -88.46941 | 1610 ft | 122 kts | 298° |
| 2026-05-09 00:35 | 44.24374 | -88.47984 | 1447 ft | 121 kts | 295° |
| 2026-05-09 00:35 | 44.24741 | -88.49037 | 1228 ft | 119 kts | 293° |
| 2026-05-09 00:36 | 44.25092 | -88.50052 | 1003 ft | 116 kts | 294° |
| 2026-05-09 00:36 | 44.25433 | -88.51030 | 861 ft | 105 kts | 294° |
| 2026-05-09 00:36 | 44.25686 | -88.51737 | 871 ft | 41 kts | 296° |
| 2026-05-09 00:36 | 44.25691 | -88.51898 | 875 ft | 14 kts | 215° |
| 2026-05-09 00:37 | 44.25603 | -88.51962 | 875 ft | 14 kts | 207° |
| 2026-05-09 00:37 | 44.25509 | -88.52027 | 877 ft | 15 kts | 207° |
| 2026-05-09 00:37 | 44.25440 | -88.52003 | 875 ft | 14 kts | 116° |
| 2026-05-09 00:37 | 44.25380 | -88.51838 | 871 ft | 22 kts | 115° |
| 2026-05-09 00:38 | 44.25313 | -88.51775 | 868 ft | 13 kts | 206° |
| 2026-05-09 00:38 | 44.25216 | -88.51847 | 870 ft | 17 kts | 213° |
| 2026-05-09 00:38 | 44.25119 | -88.51939 | 871 ft | 15 kts | 213° |
| 2026-05-09 00:38 | 44.25038 | -88.52013 | 871 ft | 13 kts | 215° |
| 2026-05-09 00:39 | 44.24967 | -88.52061 | 871 ft | 10 kts | 166° |
| 2026-05-09 00:39 | 44.24926 | -88.52001 | 870 ft | 6 kts | 161° |
| 2026-05-09 00:39 | 44.24910 | -88.52013 | 870 ft | 0 kts | 221° |